Time;durP1;ratioP1;P1;durP2;ratioP2;P2;SDS_P1;SDS_P2;PMS_P1;PMS_P2;Temp;Humidity;BMP_temperature;BMP_pressure;BME280_temperature;BME280_humidity;BME280_pressure;Samples;Min_cycle;Max_cycle;Signal;HPM_P1;HPM_P2
2023/11/13 00:04:08;;;;;;;0.00;0.00;;;;;;;7.19;71.89;100567.31;15659064;28;20042;-51
2023/11/13 00:11:49;;;;;;;0.00;0.00;;;;;;;7.06;72.41;100561.88;15657460;28;20128;-51
2023/11/13 00:19:22;;;;;;;0.10;0.10;;;;;;;7.04;72.38;100566.56;15649588;28;20044;-52
2023/11/13 00:26:59;;;;;;;0.38;0.38;;;;;;;6.96;72.56;100572.88;15658818;28;20525;-51
2023/11/13 00:34:32;;;;;;;0.05;0.05;;;;;;;6.81;73.43;100585.44;15673394;28;20044;-51
2023/11/13 00:42:07;;;;;;;0.00;0.00;;;;;;;7.03;72.91;100576.41;15627694;28;20041;-52
2023/11/13 00:49:40;;;;;;;0.20;0.20;;;;;;;7.35;71.60;100568.88;15597253;28;20046;-54
2023/11/13 00:57:16;;;;;;;0.00;0.00;;;;;;;6.95;73.58;100579.22;15612347;28;20056;-51
2023/11/13 01:04:49;;;;;;;0.00;0.00;;;;;;;6.96;73.68;100564.84;15592225;28;20040;-51
2023/11/13 01:12:24;;;;;;;0.00;0.00;;;;;;;7.45;72.53;100552.53;15599413;28;20494;-52
2023/11/13 01:19:57;;;;;;;0.00;0.00;;;;;;;6.98;71.86;100463.25;15596751;28;20060;-52
2023/11/13 01:27:33;;;;;;;0.35;0.30;;;;;;;7.30;71.59;100550.78;15601606;28;20076;-52
2023/11/13 01:35:08;;;;;;;0.00;0.00;;;;;;;7.37;70.38;100554.34;15606365;28;20060;-51
2023/11/13 01:42:43;;;;;;;0.38;0.25;;;;;;;7.51;69.99;100544.56;15648150;28;20041;-52
2023/11/13 01:50:19;;;;;;;0.00;0.00;;;;;;;7.30;69.87;100502.72;15655281;28;20041;-51
2023/11/13 01:57:54;;;;;;;;;;;;;;;7.19;70.02;100531.81;15672488;28;20514;-51
2023/11/13 02:05:29;;;;;;;0.10;0.10;;;;;;;7.31;69.77;100535.56;15585566;28;19920;-51
2023/11/13 02:13:05;;;;;;;0.00;0.00;;;;;;;7.24;70.62;100516.84;15591533;28;20084;-52
2023/11/13 02:20:39;;;;;;;0.57;0.57;;;;;;;7.39;70.29;100519.41;15630611;28;20420;-51
2023/11/13 02:28:15;;;;;;;0.43;0.32;;;;;;;7.39;69.20;100535.44;15641401;28;20049;-51
2023/11/13 02:35:49;;;;;;;0.00;0.00;;;;;;;7.44;69.09;100546.34;15590637;28;20034;-51
2023/11/13 02:43:23;;;;;;;0.10;0.10;;;;;;;7.36;69.78;100558.00;15608738;28;20128;-51
2023/11/13 02:50:56;;;;;;;0.20;0.20;;;;;;;7.36;70.36;100541.16;15590328;28;20144;-52
2023/11/13 02:58:31;;;;;;;;;;;;;;;7.30;70.93;100525.91;15592701;28;20053;-55
2023/11/13 03:06:06;;;;;;;0.00;0.00;;;;;;;7.39;69.54;100528.25;15590638;28;20020;-52
2023/11/13 03:13:44;;;;;;;0.10;0.10;;;;;;;7.39;69.60;100543.44;15605176;28;20060;-52
2023/11/13 03:21:18;;;;;;;0.22;0.22;;;;;;;7.40;69.15;100545.09;15639073;28;20044;-51
2023/11/13 03:28:53;;;;;;;0.00;0.00;;;;;;;7.27;69.12;100531.63;15621707;28;20163;-51
2023/11/13 03:36:27;;;;;;;0.00;0.00;;;;;;;7.25;68.69;100552.38;15602359;28;20045;-53
2023/11/13 03:44:04;;;;;;;1.35;0.63;;;;;;;7.22;68.55;100548.22;15585542;28;20152;-51
2023/11/13 03:51:39;;;;;;;0.15;0.15;;;;;;;7.10;68.06;100529.25;15588563;28;20061;-54
2023/11/13 03:59:14;;;;;;;0.22;0.22;;;;;;;7.00;68.69;100550.13;15584487;28;20092;-54
2023/11/13 04:06:49;;;;;;;0.00;0.00;;;;;;;7.03;68.93;100549.72;15617649;28;20056;-51
2023/11/13 04:14:24;;;;;;;0.00;0.00;;;;;;;6.93;68.76;100541.22;15603188;28;20041;-52
2023/11/13 04:21:58;;;;;;;0.08;0.08;;;;;;;6.79;68.87;100545.59;15646825;28;20053;-51
2023/11/13 04:29:33;;;;;;;0.00;0.00;;;;;;;6.69;69.72;100544.25;15598293;28;20104;-52
2023/11/13 04:37:06;;;;;;;0.00;0.00;;;;;;;6.83;68.97;100548.72;15616010;28;20050;-55
2023/11/13 04:44:41;;;;;;;;;;;;;;;6.71;68.99;100545.72;15614738;28;20041;-54
2023/11/13 04:52:14;;;;;;;0.00;0.00;;;;;;;6.37;70.52;100554.38;15618703;28;19933;-53
2023/11/13 04:59:49;;;;;;;0.00;0.00;;;;;;;6.44;69.79;100559.81;15611071;28;20052;-53
2023/11/13 05:07:23;;;;;;;0.00;0.00;;;;;;;6.57;69.22;100560.75;15612254;28;20526;-52
2023/11/13 05:14:58;;;;;;;0.28;0.25;;;;;;;6.40;69.95;100575.34;15618085;28;20504;-51
2023/11/13 05:22:32;;;;;;;0.10;0.10;;;;;;;6.08;71.07;100572.06;15672435;28;20131;-53
2023/11/13 05:30:08;;;;;;;0.00;0.00;;;;;;;6.24;71.04;100563.03;15642308;28;20555;-52
2023/11/13 05:37:42;;;;;;;0.00;0.00;;;;;;;6.37;70.31;100549.03;15613435;28;20465;-53
2023/11/13 05:45:18;;;;;;;2.17;0.50;;;;;;;6.48;69.90;100550.38;15628944;28;20049;-54
2023/11/13 05:52:52;;;;;;;0.10;0.10;;;;;;;6.43;69.42;100545.63;15648567;28;20045;-51
2023/11/13 06:00:26;;;;;;;0.20;0.20;;;;;;;6.43;69.45;100550.94;15607888;28;20145;-52
2023/11/13 06:07:59;;;;;;;0.00;0.00;;;;;;;6.24;70.27;100571.03;15610022;28;20449;-52
2023/11/13 06:15:36;;;;;;;0.00;0.00;;;;;;;6.40;69.57;100586.00;15599504;28;20103;-52
2023/11/13 06:23:09;;;;;;;0.00;0.00;;;;;;;6.27;70.12;100585.84;15635050;28;20046;-51
2023/11/13 06:30:45;;;;;;;;;;;;;;;6.48;69.32;100585.03;15656815;28;20106;-50
2023/11/13 06:38:18;;;;;;;0.00;0.00;;;;;;;6.43;70.07;100585.59;15652822;28;20354;-53
2023/11/13 06:45:53;;;;;;;;;;;;;;;6.18;70.33;100563.78;15618925;28;20041;-53
2023/11/13 06:53:26;;;;;;;0.00;0.00;;;;;;;6.31;69.82;100566.63;15607097;28;19925;-58
2023/11/13 07:01:02;;;;;;;0.00;0.00;;;;;;;5.33;73.47;100567.66;15601320;28;20449;-52
2023/11/13 07:08:36;;;;;;;0.10;0.10;;;;;;;5.96;70.50;100570.03;15605667;28;20049;-52
2023/11/13 07:16:10;;;;;;;0.13;0.13;;;;;;;6.08;70.30;100561.41;15622763;28;20051;-52
2023/11/13 07:23:44;;;;;;;0.65;0.28;;;;;;;6.05;70.01;100558.28;15646119;28;20474;-52
2023/11/13 07:31:19;;;;;;;0.00;0.00;;;;;;;6.20;69.62;100555.59;15608729;28;20563;-52
2023/11/13 07:38:52;;;;;;;0.20;0.20;;;;;;;6.37;69.29;100552.53;15617294;28;20419;-51
2023/11/13 07:46:27;;;;;;;;;;;;;;;5.85;70.27;100556.16;15612179;28;20091;-52
2023/11/13 07:54:01;;;;;;;0.05;0.05;;;;;;;5.77;71.46;100566.06;15618353;28;19956;-52
2023/11/13 08:01:37;;;;;;;0.05;0.05;;;;;;;5.93;71.09;100549.94;15630560;28;20050;-52
2023/11/13 08:09:15;;;;;;;0.45;0.45;;;;;;;6.07;72.05;100549.09;15684262;28;20044;-53
2023/11/13 08:16:49;;;;;;;0.00;0.00;;;;;;;6.00;69.39;100542.03;15662568;28;20437;-53
2023/11/13 08:24:23;;;;;;;0.15;0.15;;;;;;;7.18;67.89;100530.13;15668676;28;20061;-53
2023/11/13 08:31:58;;;;;;;0.65;0.65;;;;;;;7.94;65.58;100536.41;15681337;28;20048;-53
2023/11/13 08:39:31;;;;;;;0.00;0.00;;;;;;;8.49;62.94;100533.78;15662858;28;20196;-51
2023/11/13 08:47:07;;;;;;;0.20;0.20;;;;;;;8.10;63.97;100536.06;15680668;28;20072;-51
2023/11/13 08:54:40;;;;;;;0.10;0.10;;;;;;;8.86;62.54;100535.91;15662628;28;20068;-50
2023/11/13 09:02:14;;;;;;;0.60;0.20;;;;;;;10.29;57.13;100529.94;15681063;28;20442;-52
2023/11/13 09:09:54;;;;;;;0.00;0.00;;;;;;;10.42;58.26;100524.50;15670133;28;20091;-51
2023/11/13 09:17:31;;;;;;;0.03;0.03;;;;;;;9.99;58.24;100519.72;15660259;28;20358;-50
2023/11/13 09:25:05;;;;;;;0.80;0.80;;;;;;;10.23;56.79;100505.56;15678104;28;20041;-51
2023/11/13 09:32:40;;;;;;;0.08;0.08;;;;;;;11.01;57.31;100507.19;15677223;28;20052;-52
2023/11/13 09:40:16;;;;;;;0.15;0.10;;;;;;;10.43;56.66;100510.03;15677664;28;20044;-54
2023/11/13 09:47:59;;;;;;;0.85;0.52;;;;;;;11.17;55.25;100492.38;15669693;28;20049;-60
2023/11/13 09:55:34;;;;;;;0.00;0.00;;;;;;;10.89;55.38;100490.13;15672144;28;20045;-50
2023/11/13 10:03:09;;;;;;;0.00;0.00;;;;;;;12.45;51.15;100488.88;15675077;28;20049;-51
2023/11/13 10:10:43;;;;;;;0.63;0.45;;;;;;;12.25;51.94;100484.59;15656807;28;20448;-50
2023/11/13 10:18:26;;;;;;;1.27;0.60;;;;;;;11.96;53.35;100464.69;15676993;28;20071;-51
2023/11/13 10:25:59;;;;;;;0.38;0.38;;;;;;;11.63;52.96;100458.84;15659309;28;20494;-51
2023/11/13 10:33:34;;;;;;;;;;;;;;;10.57;55.31;100441.00;15658619;28;20041;-50
2023/11/13 10:41:07;;;;;;;0.55;0.20;;;;;;;11.40;54.71;100422.72;15674230;28;19925;-51
2023/11/13 10:48:47;;;;;;;0.00;0.00;;;;;;;11.93;52.88;100414.03;15670748;28;20643;-52
2023/11/13 10:56:21;;;;;;;0.00;0.00;;;;;;;11.40;55.05;100393.16;15670960;28;20049;-53
2023/11/13 11:03:59;;;;;;;0.85;0.47;;;;;;;11.28;54.54;100381.50;15652164;28;20076;-51
2023/11/13 11:11:35;;;;;;;0.20;0.20;;;;;;;11.11;55.20;100367.03;15668893;28;20049;-50
2023/11/13 11:50:13;;;;;;;0.43;0.20;;;;;;;12.80;47.78;100324.69;15692974;22;20427;-52
2023/11/13 11:57:48;;;;;;;0.80;0.20;;;;;;;12.85;49.08;100303.25;15657849;28;20076;-45
2023/11/13 12:05:22;;;;;;;;;;;;;;;12.14;48.31;100286.28;15651619;28;20037;-46
2023/11/13 12:12:58;;;;;;;3.50;0.95;;;;;;;12.30;49.93;100257.84;15659514;28;20004;-49
2023/11/13 12:20:35;;;;;;;0.00;0.00;;;;;;;12.25;49.01;100245.09;15659544;28;20045;-49
2023/11/13 12:28:09;;;;;;;1.20;0.25;;;;;;;13.51;45.85;100258.81;15652009;28;20052;-48
2023/11/13 12:35:45;;;;;;;0.00;0.00;;;;;;;12.20;49.84;100236.09;15658135;28;20125;-47
2023/11/13 12:43:19;;;;;;;0.00;0.00;;;;;;;12.89;48.20;100220.94;15656504;28;20496;-47
2023/11/13 12:50:53;;;;;;;0.10;0.10;;;;;;;11.57;51.91;100189.09;15617710;28;20056;-52
2023/11/13 12:58:27;;;;;;;0.57;0.57;;;;;;;10.94;53.48;100192.22;15615756;28;20092;-47
2023/11/13 13:06:08;;;;;;;0.00;0.00;;;;;;;10.31;54.62;100158.50;15613633;28;20517;-49
2023/11/13 13:13:42;;;;;;;0.00;0.00;;;;;;;10.06;56.00;100155.00;15615329;28;20049;-49
2023/11/13 13:21:21;;;;;;;0.00;0.00;;;;;;;10.44;55.25;100131.53;15614295;28;20060;-50
2023/11/13 13:28:55;;;;;;;0.00;0.00;;;;;;;10.52;55.43;100116.16;15611834;28;20095;-50
2023/11/13 13:36:30;;;;;;;0.00;0.00;;;;;;;10.12;56.33;100125.44;15612400;28;20046;-50
2023/11/13 13:44:05;;;;;;;0.47;0.28;;;;;;;9.45;58.52;100094.91;15603990;28;20037;-51
2023/11/13 13:51:41;;;;;;;0.00;0.00;;;;;;;9.04;59.99;100080.19;15610893;28;20103;-52
2023/11/13 13:59:16;;;;;;;0.40;0.20;;;;;;;9.71;58.85;100059.03;15604897;28;20063;-50
2023/11/13 14:06:55;;;;;;;0.00;0.00;;;;;;;9.26;59.45;100042.34;15610223;28;20160;-49
2023/11/13 14:14:30;;;;;;;2.13;0.63;;;;;;;9.40;60.54;100035.84;15607701;28;20045;-49
2023/11/13 14:22:06;;;;;;;0.00;0.00;;;;;;;8.93;62.11;100016.66;15607479;28;20581;-48
2023/11/13 14:29:39;;;;;;;0.32;0.32;;;;;;;8.97;61.97;100003.66;15604301;28;20223;-51
2023/11/13 14:37:14;;;;;;;0.00;0.00;;;;;;;8.72;62.79;99984.88;15606864;28;20148;-51
2023/11/13 14:44:48;;;;;;;0.20;0.20;;;;;;;8.84;63.05;99959.06;15609150;28;20202;-49
2023/11/13 14:52:24;;;;;;;0.28;0.28;;;;;;;8.73;63.04;99949.91;15607831;28;20045;-45
2023/11/13 14:59:57;;;;;;;1.27;1.17;;;;;;;8.80;63.19;99944.50;15607934;28;20072;-52
2023/11/13 15:07:34;;;;;;;1.17;0.30;;;;;;;8.93;62.71;99931.81;15607473;28;20053;-47
2023/11/13 15:15:12;;;;;;;1.08;0.55;;;;;;;8.81;63.75;99900.63;15607720;28;20030;-45
2023/11/13 15:22:48;;;;;;;0.52;0.20;;;;;;;8.64;64.29;99881.66;15607380;28;20128;-46
2023/11/13 15:30:22;;;;;;;0.00;0.00;;;;;;;8.86;64.02;99868.69;15606877;28;20045;-47
2023/11/13 15:37:57;;;;;;;0.05;0.05;;;;;;;8.37;66.13;99843.59;15604331;28;20076;-51
2023/11/13 15:45:31;;;;;;;0.00;0.00;;;;;;;8.34;67.15;99794.00;15606682;28;20565;-52
2023/11/13 15:53:06;;;;;;;0.00;0.00;;;;;;;8.21;68.01;99788.78;15605721;28;20069;-53
2023/11/13 16:00:39;;;;;;;0.00;0.00;;;;;;;8.02;68.43;99742.47;15607155;28;20097;-49
2023/11/13 16:08:17;;;;;;;0.10;0.10;;;;;;;8.28;68.51;99730.72;15605713;28;20183;-49
2023/11/13 16:15:51;;;;;;;0.00;0.00;;;;;;;8.17;68.93;99726.09;15605031;28;20046;-50
2023/11/13 16:23:28;;;;;;;0.00;0.00;;;;;;;8.10;69.70;99701.28;15613785;28;20503;-47
2023/11/13 16:31:01;;;;;;;0.00;0.00;;;;;;;8.22;69.79;99701.38;15619758;28;20148;-50
2023/11/13 16:38:36;;;;;;;2.25;1.08;;;;;;;7.90;70.97;99704.94;15613356;28;20154;-49
2023/11/13 16:46:11;;;;;;;0.00;0.00;;;;;;;7.85;71.76;99650.53;15615466;28;20220;-44
2023/11/13 16:53:49;;;;;;;0.20;0.20;;;;;;;7.98;72.64;99645.06;15614035;28;20141;-50
2023/11/13 17:01:26;;;;;;;0.25;0.25;;;;;;;7.86;72.84;99652.16;15616597;28;20049;-54
2023/11/13 17:09:03;;;;;;;0.00;0.00;;;;;;;8.08;73.35;99690.81;15615322;28;20073;-49
2023/11/13 17:16:38;;;;;;;0.00;0.00;;;;;;;7.81;77.29;99577.22;15614713;28;20056;-52
2023/11/13 17:24:13;;;;;;;0.00;0.00;;;;;;;7.34;80.55;99526.09;15612236;28;20064;-50
2023/11/13 17:31:46;;;;;;;0.00;0.00;;;;;;;7.11;82.06;99522.16;15609696;28;20121;-52
2023/11/13 17:39:21;;;;;;;0.05;0.05;;;;;;;6.97;83.16;99483.28;15611018;28;20049;-52
2023/11/13 17:46:54;;;;;;;0.35;0.35;;;;;;;7.11;83.16;99486.66;15609114;28;20494;-47
2023/11/13 17:54:29;;;;;;;1.50;0.95;;;;;;;7.37;82.67;99449.06;15678155;22;20063;-50
2023/11/13 18:02:03;;;;;;;0.03;0.03;;;;;;;7.24;83.10;99403.81;15677294;28;20396;-50
2023/11/13 18:09:38;;;;;;;0.05;0.05;;;;;;;7.60;82.55;99381.66;15677974;28;20052;-52
2023/11/13 18:17:11;;;;;;;0.00;0.00;;;;;;;7.45;83.19;99369.72;15670324;28;20094;-48
2023/11/13 18:24:46;;;;;;;0.63;0.63;;;;;;;7.44;83.44;99368.09;15676528;28;20148;-51
2023/11/13 18:32:20;;;;;;;1.00;0.55;;;;;;;7.37;85.34;99315.59;15675048;28;20041;-53
2023/11/13 18:39:57;;;;;;;0.03;0.03;;;;;;;7.10;86.70;99328.44;15675013;28;20049;-49
2023/11/13 18:47:32;;;;;;;0.90;0.40;;;;;;;7.34;86.92;99342.72;15672769;28;20044;-51
2023/11/13 18:55:07;;;;;;;;;;;;;;;7.66;86.00;99385.28;15672276;28;20508;-54
2023/11/13 19:02:40;;;;;;;0.00;0.00;;;;;;;7.47;86.66;99413.84;15671817;28;19975;-46
2023/11/13 19:10:15;;;;;;;0.30;0.30;;;;;;;7.40;86.55;99333.00;15671944;28;20060;-48
2023/11/13 19:17:48;;;;;;;1.10;0.43;;;;;;;7.81;85.77;99353.63;15671367;28;20070;-49
2023/11/13 19:25:24;;;;;;;0.00;0.00;;;;;;;7.53;88.01;99319.50;15670747;28;20041;-48
2023/11/13 19:32:57;;;;;;;0.13;0.13;;;;;;;7.58;88.01;99249.41;15670612;28;20045;-49
2023/11/13 19:40:32;;;;;;;0.00;0.00;;;;;;;7.80;88.18;99212.31;15670257;28;20055;-50
2023/11/13 19:48:06;;;;;;;0.00;0.00;;;;;;;8.09;86.85;99207.91;15671226;28;20037;-49
2023/11/13 19:55:42;;;;;;;0.00;0.00;;;;;;;8.47;85.93;99215.50;15672852;28;20052;-49
2023/11/13 20:03:16;;;;;;;0.00;0.00;;;;;;;8.59;85.03;99242.25;15683132;28;20149;-51
2023/11/13 20:10:51;;;;;;;0.10;0.10;;;;;;;8.28;87.24;99264.75;15682812;28;20294;-47
2023/11/13 20:18:25;;;;;;;0.17;0.15;;;;;;;8.47;85.89;99279.69;15682743;28;20120;-46
2023/11/13 20:25:59;;;;;;;0.00;0.00;;;;;;;8.57;85.31;99266.53;15680050;28;20047;-48
2023/11/13 20:33:32;;;;;;;0.00;0.00;;;;;;;8.64;83.93;99255.72;15679959;28;20469;-51
2023/11/13 20:41:07;;;;;;;0.00;0.00;;;;;;;8.66;84.22;99250.94;15677944;28;20280;-50
2023/11/13 20:48:41;;;;;;;0.00;0.00;;;;;;;8.69;83.95;99234.44;15679195;28;20503;-51
2023/11/13 20:56:15;;;;;;;0.00;0.00;;;;;;;8.54;83.86;99252.84;15678999;28;20041;-49
2023/11/13 21:03:49;;;;;;;0.00;0.00;;;;;;;8.46;84.87;99259.34;15663113;28;20045;-50
2023/11/13 21:11:24;;;;;;;0.00;0.00;;;;;;;8.34;85.01;99264.63;15677670;28;20148;-50
2023/11/13 21:18:58;;;;;;;0.00;0.00;;;;;;;8.43;85.63;99270.47;15680385;28;20045;-48
2023/11/13 21:26:34;;;;;;;0.00;0.00;;;;;;;8.34;86.00;99271.84;15675834;28;20132;-46
2023/11/13 21:34:09;;;;;;;0.52;0.22;;;;;;;8.35;85.54;99271.63;15669765;28;20060;-50
2023/11/13 21:41:44;;;;;;;0.00;0.00;;;;;;;8.51;86.31;99288.88;15676967;28;20091;-48
2023/11/13 21:49:19;;;;;;;0.00;0.00;;;;;;;8.90;84.67;99299.88;15677508;28;20529;-46
2023/11/13 21:56:55;;;;;;;2.50;1.08;;;;;;;8.69;85.39;99309.34;15676803;28;20041;-48
2023/11/13 22:04:29;;;;;;;0.05;0.05;;;;;;;8.93;84.09;99324.31;15677240;28;20052;-45
2023/11/13 22:12:04;;;;;;;0.00;0.00;;;;;;;9.09;83.57;99327.31;15675435;28;20142;-48
2023/11/13 22:19:37;;;;;;;0.00;0.00;;;;;;;9.17;84.09;99337.69;15673985;28;20041;-49
2023/11/13 22:27:12;;;;;;;;;;;;;;;9.15;83.44;99339.78;15667810;28;20189;-49
2023/11/13 22:34:45;;;;;;;0.00;0.00;;;;;;;9.05;84.35;99350.28;15672880;28;20396;-48
2023/11/13 22:42:20;;;;;;;;;;;;;;;9.35;83.43;99352.78;15674667;28;20043;-48
2023/11/13 22:49:53;;;;;;;0.00;0.00;;;;;;;9.31;82.47;99357.78;15673468;28;20295;-47
2023/11/13 22:57:28;;;;;;;0.00;0.00;;;;;;;9.34;82.79;99367.22;15655607;28;20053;-48
2023/11/13 23:05:01;;;;;;;0.00;0.00;;;;;;;9.20;83.41;99375.50;15671696;28;20047;-49
2023/11/13 23:12:36;;;;;;;0.00;0.00;;;;;;;9.06;83.31;99374.13;15672993;28;20047;-49
2023/11/13 23:20:11;;;;;;;0.22;0.08;;;;;;;9.09;84.02;99375.50;15664463;28;20355;-47
2023/11/13 23:27:45;;;;;;;0.00;0.00;;;;;;;9.06;83.89;99394.72;15671878;28;20499;-49
2023/11/13 23:35:19;;;;;;;1.10;0.80;;;;;;;9.32;82.93;99388.06;15662477;28;20463;-51
2023/11/13 23:42:54;;;;;;;0.20;0.15;;;;;;;9.35;82.60;99395.63;15666402;28;20053;-47
2023/11/13 23:50:28;;;;;;;0.13;0.13;;;;;;;9.08;82.60;99406.00;15649870;28;20083;-48
2023/11/13 23:58:02;;;;;;;1.10;1.05;;;;;;;9.19;83.01;99411.38;15653497;28;20045;-48
